createdAt,value
2022-08-26T00:02:57.704Z,7.18
2022-08-26T00:13:03.816Z,6.85
2022-08-26T00:23:24.154Z,7.88
2022-08-26T00:33:29.839Z,6.13
2022-08-26T00:43:46.152Z,7.78
2022-08-26T00:54:10.730Z,7.25
2022-08-26T01:04:19.648Z,6.60
2022-08-26T01:14:28.499Z,6.18
2022-08-26T01:24:37.350Z,7.03
2022-08-26T01:34:41.691Z,6.47
2022-08-26T01:44:52.346Z,7.03
2022-08-26T01:54:58.673Z,5.78
2022-08-26T02:05:10.853Z,5.82
2022-08-26T02:15:14.868Z,5.25
2022-08-26T02:25:29.428Z,5.97
2022-08-26T02:35:34.841Z,6.80
2022-08-26T02:45:41.166Z,5.18
2022-08-26T02:55:45.155Z,5.22
2022-08-26T03:05:55.105Z,8.57
2022-08-26T03:16:13.355Z,8.23
2022-08-26T03:26:18.425Z,11.38
2022-08-26T03:36:23.218Z,15.07
2022-08-26T03:46:30.024Z,9.52
2022-08-26T03:56:34.712Z,6.15
2022-08-26T04:06:47.988Z,10.55
2022-08-26T04:16:55.245Z,7.22
2022-08-26T04:27:03.332Z,8.88
2022-08-26T04:37:07.842Z,6.60
2022-08-26T04:47:13.208Z,15.15
2022-08-26T04:57:17.241Z,9.85
2022-08-26T05:07:22.365Z,6.13
2022-08-26T05:17:30.008Z,10.98
2022-08-26T05:27:38.047Z,13.68
2022-08-26T05:37:42.253Z,7.78
2022-08-26T05:47:49.510Z,13.52
2022-08-26T05:57:55.470Z,10.30
2022-08-26T06:08:14.099Z,12.25
2022-08-26T06:18:20.920Z,12.90
2022-08-26T06:28:27.046Z,9.55
2022-08-26T06:38:30.835Z,11.13
2022-08-26T06:48:36.110Z,8.98
2022-08-26T06:58:42.363Z,11.23
2022-08-26T07:08:47.898Z,10.23
2022-08-26T07:18:53.868Z,11.75
2022-08-26T07:29:00.925Z,8.18
2022-08-26T07:39:05.411Z,8.18
2022-08-26T07:49:11.482Z,8.85
2022-08-26T07:59:16.686Z,9.38
2022-08-26T08:09:22.417Z,13.73
2022-08-26T08:19:28.385Z,12.95
2022-08-26T08:29:42.201Z,15.88
2022-08-26T08:39:45.901Z,14.88
2022-08-26T08:49:51.224Z,8.70
2022-08-26T09:00:02.476Z,11.32
2022-08-26T09:10:28.895Z,9.52
2022-08-26T09:20:47.516Z,12.18
2022-08-26T09:31:13.117Z,11.73
2022-08-26T09:41:31.523Z,8.85
2022-08-26T09:51:36.682Z,18.73
2022-08-26T10:01:43.664Z,9.98
2022-08-26T10:11:55.187Z,9.70
2022-08-26T10:22:05.133Z,14.23
2022-08-26T10:32:17.789Z,9.93
2022-08-26T10:42:29.541Z,8.93
2022-08-26T10:52:50.243Z,8.82
2022-08-26T11:03:00.194Z,7.68
2022-08-26T11:13:06.850Z,11.85
2022-08-26T11:23:50.569Z,8.00
2022-08-26T11:33:59.474Z,7.43
2022-08-26T11:44:09.183Z,7.88
2022-08-26T11:54:17.589Z,10.85
2022-08-26T12:04:42.524Z,7.60
2022-08-26T12:14:47.606Z,10.00
2022-08-26T12:24:58.448Z,15.27
2022-08-26T12:45:11.542Z,16.17
2022-08-26T12:55:24.790Z,12.35
2022-08-26T13:05:34.070Z,11.82
2022-08-26T13:15:44.691Z,14.05
2022-08-26T13:25:49.368Z,9.57
2022-08-26T13:35:54.797Z,11.55
2022-08-26T13:45:58.642Z,8.60
2022-08-26T13:56:10.873Z,9.02
2022-08-26T14:06:15.271Z,20.75
2022-08-26T14:16:27.505Z,10.57
2022-08-26T14:26:31.593Z,11.07
2022-08-26T14:36:39.903Z,12.40
2022-08-26T14:46:47.705Z,13.15
2022-08-26T14:56:55.958Z,10.10
2022-08-26T15:07:01.780Z,12.07
2022-08-26T15:17:06.988Z,13.20
2022-08-26T15:27:10.803Z,14.65
2022-08-26T15:37:16.048Z,21.75
2022-08-26T15:47:20.127Z,20.98
2022-08-26T15:57:25.464Z,16.58
2022-08-26T16:07:30.806Z,16.80
2022-08-26T16:17:35.931Z,16.77
2022-08-26T16:27:39.748Z,18.27
2022-08-26T16:37:45.756Z,18.77
2022-08-26T16:47:50.760Z,18.20
2022-08-26T16:57:55.946Z,16.60
2022-08-26T17:08:01.612Z,19.65
2022-08-26T17:18:08.946Z,24.25
2022-08-26T17:28:13.633Z,19.23
2022-08-26T17:38:18.733Z,29.30
2022-08-26T17:48:22.465Z,28.75
2022-08-26T17:58:27.626Z,28.63
2022-08-26T18:08:33.214Z,28.58
2022-08-26T18:18:39.131Z,26.60
2022-08-26T18:28:42.905Z,26.67
2022-08-26T18:38:50.436Z,23.15
2022-08-26T18:48:56.804Z,20.70
2022-08-26T18:59:02.530Z,23.27
2022-08-26T19:09:11.872Z,20.30
2022-08-26T19:19:20.999Z,18.75
2022-08-26T19:29:29.519Z,22.45
2022-08-26T19:39:36.011Z,20.45
2022-08-26T19:49:40.139Z,20.67
2022-08-26T19:59:47.464Z,21.42
2022-08-26T20:09:51.299Z,21.17
2022-08-26T20:20:26.954Z,20.50
2022-08-26T20:30:37.445Z,21.33
2022-08-26T20:40:44.348Z,21.60
2022-08-26T20:50:49.184Z,15.50
2022-08-26T21:00:54.432Z,16.58
2022-08-26T21:10:58.318Z,17.25
2022-08-26T21:21:06.296Z,21.50
2022-08-26T21:31:13.345Z,16.83
2022-08-26T21:41:29.477Z,19.52
2022-08-26T21:51:36.318Z,16.27
2022-08-26T22:01:41.798Z,17.23
2022-08-26T22:11:46.378Z,16.80
2022-08-26T22:21:53.427Z,20.02
2022-08-26T22:31:57.272Z,12.85
2022-08-26T22:42:03.897Z,17.00
2022-08-26T22:52:07.692Z,15.80
2022-08-26T23:02:13.109Z,14.35
2022-08-26T23:12:16.967Z,10.65
2022-08-26T23:22:22.111Z,11.95
2022-08-26T23:32:25.907Z,16.20
2022-08-26T23:42:31.095Z,16.17
2022-08-26T23:52:52.112Z,15.07
